Time;durP1;ratioP1;P1;durP2;ratioP2;P2;SDS_P1;SDS_P2;PMS_P1;PMS_P2;Temp;Humidity;BMP_temperature;BMP_pressure;BME280_temperature;BME280_humidity;BME280_pressure;Samples;Min_cycle;Max_cycle;Signal;HPM_P1;HPM_P2
2022/10/12 00:00:04;;;;;;;17.33;10.03;;;7.20;99.90;;;;;;5117810;28;20211;-92
2022/10/12 00:02:31;;;;;;;15.40;9.33;;;7.20;99.90;;;;;;5117453;28;20196;-89
2022/10/12 00:04:59;;;;;;;13.37;9.47;;;7.10;99.90;;;;;;5118567;28;20253;-88
2022/10/12 00:07:26;;;;;;;14.07;9.80;;;7.10;99.90;;;;;;5117989;28;20207;-89
2022/10/12 00:09:52;;;;;;;16.00;9.90;;;7.10;99.90;;;;;;5118687;28;20203;-89
2022/10/12 00:12:19;;;;;;;17.77;9.97;;;7.10;99.90;;;;;;5118014;28;20185;-87
2022/10/12 00:14:46;;;;;;;16.87;9.67;;;7.00;99.90;;;;;;5115862;28;20208;-89
2022/10/12 00:17:13;;;;;;;15.00;10.10;;;7.00;99.90;;;;;;5114687;28;20200;-88
2022/10/12 00:19:40;;;;;;;16.17;9.83;;;7.00;99.90;;;;;;5114301;28;20278;-91
2022/10/12 00:22:08;;;;;;;18.60;10.33;;;7.00;99.90;;;;;;5113570;28;20636;-90
2022/10/12 00:24:35;;;;;;;13.47;9.43;;;7.00;99.90;;;;;;5114001;28;20196;-89
2022/10/12 00:27:02;;;;;;;18.10;9.63;;;7.00;99.90;;;;;;5114350;28;20203;-90
2022/10/12 00:29:29;;;;;;;20.73;10.30;;;6.90;99.90;;;;;;5115081;28;20212;-89
2022/10/12 00:31:56;;;;;;;15.80;9.70;;;6.80;99.90;;;;;;5114280;28;20206;-89
2022/10/12 00:34:22;;;;;;;20.13;10.43;;;6.80;99.90;;;;;;5114335;28;20201;-89
2022/10/12 00:36:49;;;;;;;15.93;9.90;;;6.80;99.90;;;;;;5113845;28;20215;-90
2022/10/12 00:39:18;;;;;;;18.73;9.63;;;6.80;99.90;;;;;;5112815;28;20196;-90
2022/10/12 00:41:45;;;;;;;17.60;9.83;;;6.80;99.90;;;;;;5113929;28;20211;-90
2022/10/12 00:44:38;;;;;;;17.87;10.17;;;6.80;99.90;;;;;;5114117;28;20212;-90
2022/10/12 00:47:16;;;;;;;17.00;9.83;;;6.80;99.90;;;;;;5113848;28;20212;-90
2022/10/12 00:49:46;;;;;;;17.27;9.83;;;6.80;99.90;;;;;;5113832;28;20582;-91
2022/10/12 00:52:17;;;;;;;18.03;9.53;;;6.70;99.90;;;;;;5117859;28;20222;-89
2022/10/12 00:54:48;;;;;;;19.00;10.70;;;6.70;99.90;;;;;;5118058;28;20189;-90
2022/10/12 00:57:17;;;;;;;18.47;10.90;;;6.70;99.90;;;;;;5117977;28;20577;-90
2022/10/12 00:59:49;;;;;;;16.33;10.07;;;6.70;99.90;;;;;;5117712;28;20207;-91
2022/10/12 01:02:17;;;;;;;17.00;9.70;;;6.70;99.90;;;;;;5117879;28;20200;-89
2022/10/12 01:04:45;;;;;;;20.07;10.07;;;6.60;99.90;;;;;;5117619;28;20204;-91
2022/10/12 01:07:12;;;;;;;15.17;10.23;;;6.60;99.90;;;;;;5117390;28;20212;-90
2022/10/12 01:09:41;;;;;;;15.13;9.93;;;6.60;99.90;;;;;;5117780;28;20189;-89
2022/10/12 01:12:10;;;;;;;19.03;9.63;;;6.60;99.90;;;;;;5117343;28;20211;-90
2022/10/12 01:14:37;;;;;;;15.37;9.90;;;6.60;99.90;;;;;;5117658;27;20208;-90
2022/10/12 01:17:18;;;;;;;16.40;9.27;;;6.50;99.90;;;;;;5117676;28;20200;-90
2022/10/12 01:20:15;;;;;;;15.60;8.83;;;6.40;99.90;;;;;;5117197;28;20200;-90
2022/10/12 01:22:46;;;;;;;17.57;10.13;;;6.50;99.90;;;;;;5111911;28;20670;-89
2022/10/12 01:25:25;;;;;;;13.53;9.60;;;6.40;99.90;;;;;;5117316;28;20228;-89
2022/10/12 01:27:58;;;;;;;13.80;9.33;;;6.40;99.90;;;;;;5117252;28;20216;-89
2022/10/12 01:30:34;;;;;;;15.27;10.20;;;6.40;99.90;;;;;;5117547;28;20200;-90
2022/10/12 01:33:17;;;;;;;17.17;10.37;;;6.50;99.90;;;;;;5116595;28;20562;-90
2022/10/12 01:35:55;;;;;;;16.43;9.40;;;6.50;99.90;;;;;;5117211;28;20196;-90
2022/10/12 01:38:32;;;;;;;17.23;10.33;;;6.40;99.90;;;;;;5117426;28;20192;-90
2022/10/12 01:41:04;;;;;;;12.67;9.23;;;6.30;99.90;;;;;;5117049;28;20558;-90
2022/10/12 01:43:38;;;;;;;15.90;9.47;;;6.20;99.90;;;;;;5117148;28;20192;-89
2022/10/12 01:46:37;;;;;;;14.57;10.30;;;6.20;99.90;;;;;;5116807;28;20231;-90
2022/10/12 01:49:06;;;;;;;14.73;9.27;;;6.30;99.90;;;;;;5093635;28;20213;-89
2022/10/12 01:51:40;;;;;;;16.27;9.33;;;6.20;99.90;;;;;;5096102;28;20232;-91
2022/10/12 01:54:13;;;;;;;17.30;10.73;;;6.20;99.90;;;;;;5095270;28;20433;-90
2022/10/12 01:56:47;;;;;;;15.77;9.57;;;6.10;99.90;;;;;;5096307;28;20205;-90
2022/10/12 01:59:19;;;;;;;13.73;9.03;;;6.20;99.90;;;;;;5095716;28;20746;-89
2022/10/12 02:01:55;;;;;;;17.83;9.57;;;6.10;99.90;;;;;;5095060;28;20212;-90
2022/10/12 02:04:31;;;;;;;11.93;8.67;;;6.10;99.90;;;;;;5096198;28;20204;-90
2022/10/12 02:07:01;;;;;;;15.10;9.07;;;6.20;99.90;;;;;;5095843;28;20228;-89
2022/10/12 02:09:31;;;;;;;13.40;8.93;;;6.20;99.90;;;;;;5095962;28;20193;-90
2022/10/12 02:12:03;;;;;;;15.33;9.20;;;6.20;99.90;;;;;;5096152;28;20205;-89
2022/10/12 02:14:35;;;;;;;13.43;9.07;;;6.10;99.90;;;;;;5096192;28;20208;-90
2022/10/12 02:17:04;;;;;;;10.90;9.00;;;6.10;99.90;;;;;;5096201;28;20687;-89
2022/10/12 02:19:38;;;;;;;17.17;9.33;;;6.00;99.90;;;;;;5095985;28;20205;-90
2022/10/12 02:22:07;;;;;;;14.13;9.87;;;5.90;99.90;;;;;;5095876;28;20208;-90
2022/10/12 02:24:37;;;;;;;19.27;12.00;;;6.00;99.90;;;;;;5104828;28;20429;-90
2022/10/12 02:27:05;;;;;;;14.37;10.73;;;6.20;99.90;;;;;;5116563;28;20236;-90
2022/10/12 02:29:36;;;;;;;16.90;8.90;;;6.10;99.90;;;;;;5116242;27;20215;-89
2022/10/12 02:32:08;;;;;;;15.60;9.73;;;6.00;99.90;;;;;;5115974;28;20657;-88
2022/10/12 02:34:44;;;;;;;13.83;9.77;;;6.00;99.90;;;;;;5115912;28;20204;-90
2022/10/12 02:37:18;;;;;;;11.87;9.27;;;6.00;99.90;;;;;;5116067;28;20211;-89
2022/10/12 02:39:50;;;;;;;14.10;9.23;;;5.90;99.90;;;;;;5115905;28;20223;-90
2022/10/12 02:42:21;;;;;;;17.63;10.17;;;5.90;99.90;;;;;;5115741;28;20204;-89
2022/10/12 02:44:49;;;;;;;14.90;9.30;;;5.90;99.90;;;;;;5116038;28;20196;-91
2022/10/12 02:47:17;;;;;;;13.90;9.13;;;5.80;99.90;;;;;;5115762;28;20596;-90
2022/10/12 02:49:47;;;;;;;13.27;8.40;;;5.80;99.90;;;;;;5115957;28;20201;-90
2022/10/12 02:52:14;;;;;;;13.83;9.57;;;5.80;99.90;;;;;;5115741;28;20201;-90
2022/10/12 02:54:41;;;;;;;12.17;8.93;;;5.90;99.90;;;;;;5115206;28;20232;-90
2022/10/12 02:57:07;;;;;;;17.13;9.40;;;6.00;99.90;;;;;;5115779;28;20196;-90
2022/10/12 02:59:35;;;;;;;15.40;9.30;;;6.00;99.90;;;;;;5115578;28;20193;-91
2022/10/12 03:02:01;;;;;;;14.87;10.33;;;6.00;99.90;;;;;;5115415;28;20201;-90
2022/10/12 03:04:28;;;;;;;16.87;10.07;;;6.00;99.90;;;;;;5115513;28;20195;-90
2022/10/12 03:06:56;;;;;;;14.60;10.00;;;6.00;99.90;;;;;;5115581;28;20239;-91
2022/10/12 03:09:23;;;;;;;16.00;9.70;;;5.90;99.90;;;;;;5115103;28;20211;-91
2022/10/12 03:11:50;;;;;;;13.07;9.67;;;5.90;99.90;;;;;;5115435;28;20667;-89
2022/10/12 03:14:17;;;;;;;14.33;9.53;;;6.00;99.90;;;;;;5114889;28;20682;-90
2022/10/12 03:16:45;;;;;;;15.43;9.53;;;6.00;99.90;;;;;;5115095;28;20540;-91
2022/10/12 03:19:12;;;;;;;12.87;9.67;;;6.00;99.90;;;;;;5115108;28;20632;-90
2022/10/12 03:21:39;;;;;;;14.93;9.27;;;6.00;99.90;;;;;;5115273;28;20586;-91
2022/10/12 03:24:07;;;;;;;12.13;8.97;;;5.80;99.90;;;;;;5115260;28;20215;-91
2022/10/12 03:26:34;;;;;;;13.00;9.33;;;5.80;99.90;;;;;;5116338;28;20220;-91
2022/10/12 03:29:01;;;;;;;13.20;8.97;;;5.70;99.90;;;;;;5115768;28;20200;-90
2022/10/12 03:31:27;;;;;;;14.90;9.33;;;5.70;99.90;;;;;;5118624;28;20185;-90
2022/10/12 03:33:54;;;;;;;16.10;10.07;;;5.80;99.90;;;;;;5118380;28;20199;-90
2022/10/12 03:36:21;;;;;;;16.47;9.63;;;5.70;99.90;;;;;;5117962;28;20208;-89
2022/10/12 03:38:48;;;;;;;13.73;8.97;;;5.70;99.90;;;;;;5119287;28;20251;-89
2022/10/12 03:41:16;;;;;;;13.00;8.87;;;5.80;99.90;;;;;;5115015;28;20257;-90
2022/10/12 03:43:43;;;;;;;14.60;9.73;;;5.80;99.90;;;;;;5114867;28;20213;-90
2022/10/12 03:46:09;;;;;;;17.93;9.47;;;5.70;99.90;;;;;;5114753;28;20675;-91
2022/10/12 03:48:36;;;;;;;14.37;10.17;;;5.70;99.90;;;;;;5114737;28;20670;-91
2022/10/12 03:51:03;;;;;;;14.20;8.93;;;5.70;99.90;;;;;;5114439;28;20679;-89
2022/10/12 03:53:30;;;;;;;14.70;9.93;;;5.90;99.90;;;;;;5113449;28;20201;-90
2022/10/12 03:55:57;;;;;;;14.87;8.87;;;5.80;99.90;;;;;;5114685;28;20197;-91
2022/10/12 03:58:25;;;;;;;14.40;9.40;;;5.80;99.90;;;;;;5114660;28;20211;-89
2022/10/12 04:00:52;;;;;;;18.60;9.53;;;5.80;99.90;;;;;;5114790;28;20630;-91
2022/10/12 04:03:19;;;;;;;17.20;9.83;;;5.80;99.90;;;;;;5114393;28;20679;-91
2022/10/12 04:05:53;;;;;;;16.63;9.73;;;5.80;99.90;;;;;;5114448;28;20215;-90
2022/10/12 04:08:20;;;;;;;16.43;10.23;;;5.70;99.90;;;;;;5114076;28;20210;-90
2022/10/12 04:10:47;;;;;;;15.00;10.33;;;5.70;99.90;;;;;;5114111;28;20192;-91
2022/10/12 04:13:13;;;;;;;15.10;9.63;;;5.80;99.90;;;;;;5112841;28;20659;-90
2022/10/12 04:15:42;;;;;;;17.77;10.47;;;5.70;99.90;;;;;;5114599;28;20200;-90
2022/10/12 04:18:08;;;;;;;14.40;10.53;;;5.70;99.90;;;;;;5114563;28;20204;-91
2022/10/12 04:20:35;;;;;;;16.65;11.85;;;5.80;99.90;;;;;;5113620;28;20440;-90
2022/10/12 04:23:03;;;;;;;18.57;10.63;;;6.00;99.90;;;;;;5114014;28;20191;-91
2022/10/12 04:25:30;;;;;;;12.37;9.70;;;6.00;99.90;;;;;;5115447;28;20664;-92
2022/10/12 04:27:57;;;;;;;15.83;9.80;;;5.90;99.90;;;;;;5118203;28;20595;-91
2022/10/12 04:30:24;;;;;;;13.20;9.00;;;5.70;99.90;;;;;;5118600;28;20211;-89
2022/10/12 04:32:52;;;;;;;12.57;9.27;;;5.70;99.90;;;;;;5118340;28;20651;-91
2022/10/12 04:35:19;;;;;;;15.17;10.13;;;5.60;99.90;;;;;;5118401;28;20632;-89
2022/10/12 04:37:45;;;;;;;16.83;10.13;;;5.60;99.90;;;;;;5118082;28;20208;-91
2022/10/12 04:40:12;;;;;;;16.07;10.53;;;5.70;99.90;;;;;;5118587;28;20200;-92
2022/10/12 04:42:39;;;;;;;13.37;9.83;;;5.70;99.90;;;;;;5117895;28;20572;-91
2022/10/12 04:45:07;;;;;;;17.00;9.77;;;5.70;99.90;;;;;;5117417;28;20196;-92
2022/10/12 04:47:34;;;;;;;13.20;9.83;;;5.60;99.90;;;;;;5117826;28;20239;-91
2022/10/12 04:50:03;;;;;;;19.20;12.70;;;5.50;99.90;;;;;;5117708;28;20428;-91
2022/10/12 04:52:29;;;;;;;16.23;10.40;;;5.50;99.90;;;;;;5118321;28;20246;-91
2022/10/12 04:54:56;;;;;;;14.03;9.70;;;5.60;99.90;;;;;;5117956;28;20201;-91
2022/10/12 04:57:23;;;;;;;14.27;9.70;;;5.50;99.90;;;;;;5117591;28;20205;-89
2022/10/12 04:59:50;;;;;;;15.70;9.57;;;5.50;99.90;;;;;;5118096;28;20200;-90
2022/10/12 05:02:16;;;;;;;14.47;9.60;;;5.50;99.90;;;;;;5116193;28;20204;-91
2022/10/12 05:04:43;;;;;;;20.60;9.33;;;5.50;99.90;;;;;;5116637;28;20212;-93
2022/10/12 05:07:11;;;;;;;19.80;9.87;;;5.50;99.90;;;;;;5115776;28;20253;-94
2022/10/12 05:09:38;;;;;;;13.20;9.87;;;5.50;99.90;;;;;;5117638;28;20220;-93
2022/10/12 05:12:06;;;;;;;14.90;9.50;;;5.50;99.90;;;;;;5118582;28;20552;-94
2022/10/12 05:14:34;;;;;;;16.93;10.70;;;5.50;99.90;;;;;;5117943;28;20585;-94
2022/10/12 05:17:00;;;;;;;15.97;9.33;;;5.40;99.90;;;;;;5117603;28;20576;-92
2022/10/12 05:19:28;;;;;;;15.60;9.80;;;5.40;99.90;;;;;;5117121;28;20201;-89
2022/10/12 05:21:55;;;;;;;17.20;9.67;;;5.40;99.90;;;;;;5116432;28;20211;-90
2022/10/12 05:24:23;;;;;;;14.70;9.30;;;5.40;99.90;;;;;;5117170;28;20206;-91
2022/10/12 05:26:50;;;;;;;16.30;9.03;;;5.40;99.90;;;;;;5117053;28;20226;-89
2022/10/12 05:29:17;;;;;;;15.30;8.77;;;5.40;99.90;;;;;;5117228;28;20205;-92
2022/10/12 05:31:43;;;;;;;19.30;9.20;;;5.40;99.90;;;;;;5117830;28;20673;-93
2022/10/12 05:34:10;;;;;;;20.03;9.07;;;5.40;99.90;;;;;;5117239;28;20200;-94
2022/10/12 05:36:37;;;;;;;16.50;8.60;;;5.30;99.90;;;;;;5117214;28;20216;-94
2022/10/12 05:39:04;;;;;;;13.73;9.07;;;5.30;99.90;;;;;;5117350;28;20652;-95
2022/10/12 05:41:33;;;;;;;17.07;9.83;;;5.40;99.90;;;;;;5117001;27;20216;-92
2022/10/12 05:44:00;;;;;;;17.03;8.80;;;5.40;99.90;;;;;;5117687;28;20616;-91
2022/10/12 05:46:27;;;;;;;18.17;8.67;;;5.30;99.90;;;;;;5115792;28;20584;-90
2022/10/12 05:48:53;;;;;;;17.63;11.30;;;5.30;99.90;;;;;;5116642;28;20416;-93
2022/10/12 05:51:20;;;;;;;17.13;9.43;;;5.50;99.90;;;;;;5117547;28;20232;-94
2022/10/12 05:53:48;;;;;;;24.07;8.93;;;5.40;99.90;;;;;;5117022;28;20216;-92
2022/10/12 05:56:17;;;;;;;16.73;9.07;;;5.60;99.90;;;;;;5117734;28;20201;-93
2022/10/12 05:58:45;;;;;;;17.13;9.20;;;5.40;99.90;;;;;;5117153;28;20219;-94
2022/10/12 06:01:13;;;;;;;22.43;9.03;;;5.40;99.90;;;;;;5117062;28;20196;-92
2022/10/12 06:03:40;;;;;;;14.77;8.53;;;5.40;99.90;;;;;;5116636;28;20200;-88
2022/10/12 06:06:07;;;;;;;15.93;8.97;;;5.30;99.90;;;;;;5116278;28;20189;-91
2022/10/12 06:08:37;;;;;;;18.13;8.80;;;5.30;99.90;;;;;;5117315;28;20223;-92
2022/10/12 06:11:06;;;;;;;24.00;9.70;;;5.40;99.90;;;;;;5120415;28;20208;-90
2022/10/12 06:13:33;;;;;;;21.40;9.37;;;5.30;99.90;;;;;;5127067;28;20274;-91
2022/10/12 06:16:02;;;;;;;23.13;8.53;;;5.30;99.90;;;;;;5128860;28;20189;-94
2022/10/12 06:18:32;;;;;;;19.50;11.32;;;5.30;99.90;;;;;;5130627;27;20443;-94
2022/10/12 06:21:02;;;;;;;18.17;9.43;;;5.40;99.90;;;;;;5128275;28;20204;-94
2022/10/12 06:23:28;;;;;;;26.80;10.37;;;5.30;99.90;;;;;;5129726;28;20195;-94
2022/10/12 06:25:55;;;;;;;17.87;9.07;;;5.40;99.90;;;;;;5120970;28;20283;-87
2022/10/12 06:28:23;;;;;;;25.77;9.87;;;5.50;99.90;;;;;;5116330;28;20228;-93
2022/10/12 06:30:53;;;;;;;18.47;11.30;;;5.50;99.90;;;;;;5116430;28;20208;-91
2022/10/12 06:33:22;;;;;;;16.67;11.37;;;5.60;99.90;;;;;;5116178;28;20201;-92
2022/10/12 06:35:49;;;;;;;21.13;12.33;;;5.70;99.90;;;;;;5116179;28;20188;-91
2022/10/12 06:38:15;;;;;;;24.23;12.60;;;5.70;99.90;;;;;;5115875;28;20212;-93
2022/10/12 06:40:43;;;;;;;27.97;13.17;;;5.80;99.90;;;;;;5116152;28;20204;-91
2022/10/12 06:43:10;;;;;;;25.47;12.40;;;5.80;99.90;;;;;;5116263;28;20208;-92
2022/10/12 06:45:37;;;;;;;26.07;11.97;;;5.90;99.90;;;;;;5115701;28;20644;-92
2022/10/12 06:48:04;;;;;;;27.27;13.23;;;5.90;99.90;;;;;;5115347;28;20230;-92
2022/10/12 06:50:32;;;;;;;26.33;14.17;;;6.00;99.90;;;;;;5115989;28;20224;-91
2022/10/12 06:52:59;;;;;;;28.30;12.83;;;6.10;99.90;;;;;;5115925;28;20204;-92
2022/10/12 06:55:27;;;;;;;23.93;12.00;;;6.00;99.90;;;;;;5116198;28;20204;-92
2022/10/12 06:57:55;;;;;;;26.00;12.37;;;6.00;99.90;;;;;;5116000;28;20200;-92
2022/10/12 07:00:22;;;;;;;29.30;14.67;;;6.10;99.90;;;;;;5112610;28;20196;-92
2022/10/12 07:02:49;;;;;;;23.50;12.03;;;6.10;99.90;;;;;;5115422;28;20655;-93
2022/10/12 07:05:16;;;;;;;19.73;11.37;;;6.10;99.90;;;;;;5115268;28;20188;-93
2022/10/12 07:07:45;;;;;;;22.33;11.50;;;6.10;99.90;;;;;;5115041;28;20225;-91
2022/10/12 07:10:14;;;;;;;20.23;11.80;;;6.20;99.90;;;;;;5115536;27;20199;-92
2022/10/12 07:12:46;;;;;;;21.17;12.30;;;6.20;99.90;;;;;;5094836;28;20573;-90
2022/10/12 07:15:15;;;;;;;28.47;12.40;;;6.30;99.90;;;;;;5094903;28;20205;-90
2022/10/12 07:17:44;;;;;;;25.50;11.97;;;6.40;99.90;;;;;;5095174;28;20194;-89
2022/10/12 07:20:14;;;;;;;20.10;11.90;;;6.50;99.90;;;;;;5095495;28;20205;-91
2022/10/12 07:22:41;;;;;;;23.50;11.63;;;6.60;99.90;;;;;;5095076;28;20556;-90
2022/10/12 07:25:09;;;;;;;21.53;12.07;;;6.70;99.90;;;;;;5095010;28;20288;-89
2022/10/12 07:27:37;;;;;;;17.90;12.40;;;6.90;99.90;;;;;;5095138;28;20306;-90
2022/10/12 07:30:06;;;;;;;21.93;12.90;;;7.00;99.90;;;;;;5094943;28;20201;-89
2022/10/12 07:32:35;;;;;;;18.07;11.60;;;7.00;99.90;;;;;;5094282;28;20205;-88
2022/10/12 07:35:04;;;;;;;25.80;11.77;;;7.10;99.90;;;;;;5093621;28;20204;-89
2022/10/12 07:37:31;;;;;;;21.17;11.47;;;7.30;99.90;;;;;;5093624;28;20201;-88
2022/10/12 07:40:04;;;;;;;16.80;10.87;;;7.50;99.90;;;;;;5094207;28;20208;-89
2022/10/12 07:42:34;;;;;;;20.80;12.07;;;7.50;99.90;;;;;;5094770;28;20209;-89
2022/10/12 07:45:01;;;;;;;19.17;10.57;;;7.60;99.90;;;;;;5114465;28;20197;-91
2022/10/12 07:47:28;;;;;;;45.50;12.57;;;7.50;99.90;;;;;;5114333;28;20236;-93
2022/10/12 07:49:55;;;;;;;29.90;11.73;;;7.50;99.90;;;;;;5114579;28;20287;-93
2022/10/12 07:52:22;;;;;;;94.27;16.13;;;7.50;99.90;;;;;;5114905;27;20231;-93
2022/10/12 07:54:49;;;;;;;47.03;12.90;;;7.80;99.90;;;;;;5113993;28;20209;-93
2022/10/12 07:57:16;;;;;;;27.17;11.43;;;8.00;99.90;;;;;;5113974;28;20192;-93
2022/10/12 07:59:44;;;;;;;21.60;10.87;;;8.00;99.90;;;;;;5118453;27;20192;-94
2022/10/12 08:02:11;;;;;;;19.50;10.73;;;8.10;99.90;;;;;;5116365;28;20207;-89
2022/10/12 08:04:38;;;;;;;25.03;11.13;;;8.10;99.90;;;;;;5114463;28;20207;-89
2022/10/12 08:07:06;;;;;;;24.00;10.87;;;8.20;99.90;;;;;;5114695;28;20200;-89
2022/10/12 08:09:34;;;;;;;18.20;9.37;;;8.30;99.90;;;;;;5115062;28;20272;-90
2022/10/12 08:12:04;;;;;;;19.03;10.70;;;8.30;99.90;;;;;;5114612;28;20684;-92
2022/10/12 08:14:31;;;;;;;16.57;9.87;;;8.40;99.90;;;;;;5113957;28;20189;-89
2022/10/12 08:16:59;;;;;;;15.10;10.30;;;8.40;99.90;;;;;;5113807;27;20204;-89
2022/10/12 08:19:25;;;;;;;18.57;10.20;;;8.40;99.90;;;;;;5114115;28;20632;-89
2022/10/12 08:21:52;;;;;;;17.93;10.37;;;8.50;99.90;;;;;;5113838;28;20199;-89
2022/10/12 08:24:19;;;;;;;22.23;10.23;;;8.60;99.90;;;;;;5114613;28;20192;-91
2022/10/12 08:26:46;;;;;;;17.37;9.07;;;8.60;99.90;;;;;;5115599;28;20631;-88
2022/10/12 08:29:14;;;;;;;17.40;10.00;;;8.60;99.90;;;;;;5114507;28;20230;-89
2022/10/12 08:31:41;;;;;;;14.30;8.63;;;8.70;99.90;;;;;;5114116;28;20208;-89
2022/10/12 08:34:09;;;;;;;15.87;9.10;;;8.80;99.90;;;;;;5114270;28;20199;-95
2022/10/12 08:36:37;;;;;;;18.37;8.53;;;8.90;99.90;;;;;;5114490;28;20218;-91
2022/10/12 08:39:05;;;;;;;14.93;8.73;;;8.90;99.90;;;;;;5114357;28;20656;-90
2022/10/12 08:41:43;;;;;;;14.67;9.03;;;9.00;99.90;;;;;;5114103;28;20207;-89
2022/10/12 08:44:27;;;;;;;15.13;8.43;;;9.00;99.90;;;;;;5114476;28;20203;-90
2022/10/12 08:46:57;;;;;;;18.05;10.07;;;8.90;99.90;;;;;;5113361;28;20421;-94
2022/10/12 08:49:28;;;;;;;15.83;8.37;;;9.00;99.90;;;;;;5113723;28;20782;-90
2022/10/12 08:51:58;;;;;;;16.13;8.47;;;9.10;99.90;;;;;;5114820;28;20226;-88
2022/10/12 08:54:30;;;;;;;15.13;8.40;;;9.20;99.90;;;;;;5115101;28;20208;-89
2022/10/12 08:56:57;;;;;;;17.33;8.23;;;9.20;99.90;;;;;;5113453;28;20559;-89
2022/10/12 08:59:25;;;;;;;13.70;8.23;;;9.30;99.90;;;;;;5114281;28;20205;-90
2022/10/12 09:02:02;;;;;;;14.73;8.33;;;9.50;99.90;;;;;;5115501;28;20192;-95
2022/10/12 09:04:45;;;;;;;14.40;8.13;;;9.70;99.90;;;;;;5114800;27;20543;-92
2022/10/12 09:07:17;;;;;;;15.87;7.83;;;9.80;99.90;;;;;;5114358;28;20647;-91
2022/10/12 09:09:56;;;;;;;13.87;7.13;;;9.90;99.90;;;;;;5114517;28;20196;-89
2022/10/12 09:12:37;;;;;;;14.10;7.97;;;10.00;99.90;;;;;;5116843;28;20215;-90
2022/10/12 09:15:10;;;;;;;16.20;8.48;;;10.20;99.90;;;;;;5117762;28;20441;-92
2022/10/12 09:17:40;;;;;;;11.33;6.80;;;10.50;99.90;;;;;;5117990;28;20216;-87
2022/10/12 09:20:18;;;;;;;13.17;7.17;;;10.70;99.90;;;;;;5118249;28;20678;-88
2022/10/12 09:22:49;;;;;;;11.13;7.10;;;10.80;99.90;;;;;;5116773;28;20204;-88
2022/10/12 09:25:17;;;;;;;14.87;7.30;;;11.10;99.90;;;;;;5117807;28;20197;-85
2022/10/12 09:27:46;;;;;;;11.07;6.70;;;11.10;99.90;;;;;;5117943;27;20232;-89
2022/10/12 09:30:17;;;;;;;15.83;7.07;;;11.20;99.90;;;;;;5119995;28;20199;-85
2022/10/12 09:33:12;;;;;;;16.37;7.23;;;11.30;99.90;;;;;;5122341;28;20190;-95
2022/10/12 09:35:41;;;;;;;15.30;7.20;;;11.50;99.90;;;;;;5129357;28;20187;-92
2022/10/12 09:38:10;;;;;;;15.77;7.13;;;11.70;99.90;;;;;;5123931;28;20206;-95
2022/10/12 09:40:37;;;;;;;11.57;6.33;;;11.70;99.90;;;;;;5118968;28;20285;-92
2022/10/12 09:43:09;;;;;;;9.17;6.27;;;11.60;99.90;;;;;;5121692;28;20674;-85
2022/10/12 09:45:37;;;;;;;16.10;8.27;;;11.80;99.90;;;;;;5118037;28;20448;-87
2022/10/12 09:48:22;;;;;;;17.33;7.10;;;12.00;99.90;;;;;;5119751;28;20233;-85
2022/10/12 09:50:54;;;;;;;15.93;6.20;;;12.20;99.90;;;;;;5117866;28;20239;-85
2022/10/12 09:53:30;;;;;;;11.80;6.37;;;12.40;99.90;;;;;;5116933;28;20203;-85
2022/10/12 09:56:00;;;;;;;8.70;6.23;;;12.60;99.90;;;;;;5122827;27;20715;-84
2022/10/12 09:58:30;;;;;;;9.90;5.80;;;12.80;99.90;;;;;;5136331;27;20212;-86
2022/10/12 10:01:20;;;;;;;9.60;5.90;;;12.80;99.90;;;;;;5136486;27;20558;-85
2022/10/12 10:03:50;;;;;;;11.43;5.60;;;13.00;99.90;;;;;;5116286;27;20229;-85
2022/10/12 10:06:25;;;;;;;11.97;6.30;;;13.00;99.90;;;;;;5116560;28;20192;-84
2022/10/12 10:08:52;;;;;;;14.43;5.20;;;13.20;99.90;;;;;;5116446;28;20219;-84
2022/10/12 10:11:23;;;;;;;12.00;5.43;;;13.30;99.90;;;;;;5115289;28;20193;-85
2022/10/12 10:13:54;;;;;;;12.70;5.67;;;13.20;99.90;;;;;;5116302;28;20184;-85
2022/10/12 10:16:25;;;;;;;9.70;5.23;;;13.00;99.90;;;;;;5116125;28;20252;-85
2022/10/12 10:18:57;;;;;;;14.80;5.93;;;12.80;99.90;;;;;;5118648;27;20192;-85
2022/10/12 10:21:36;;;;;;;18.43;6.60;;;12.90;99.90;;;;;;5115459;27;20218;-83
2022/10/12 10:24:05;;;;;;;15.23;5.57;;;13.10;99.90;;;;;;5130719;27;20200;-85
2022/10/12 10:26:52;;;;;;;8.57;6.07;;;13.30;99.90;;;;;;5138672;27;20207;-94
2022/10/12 10:29:35;;;;;;;11.83;5.43;;;13.60;99.90;;;;;;5145591;27;20224;-90
2022/10/12 10:32:23;;;;;;;12.27;5.40;;;13.60;99.90;;;;;;5117255;28;20234;-83
2022/10/12 10:35:02;;;;;;;10.77;5.03;;;13.70;99.90;;;;;;5115167;28;20257;-85
2022/10/12 10:37:30;;;;;;;10.93;5.03;;;13.70;99.90;;;;;;5115114;28;20196;-85
2022/10/12 10:39:59;;;;;;;11.47;5.67;;;13.60;99.90;;;;;;5114990;28;20656;-85
2022/10/12 10:42:28;;;;;;;17.23;5.50;;;13.80;99.90;;;;;;5115677;28;20196;-85
2022/10/12 10:45:00;;;;;;;13.83;5.40;;;13.80;99.90;;;;;;5115117;28;20206;-85
2022/10/12 10:47:29;;;;;;;11.20;5.03;;;13.70;99.90;;;;;;5114974;28;20283;-86
2022/10/12 10:49:58;;;;;;;9.03;5.07;;;13.60;99.90;;;;;;5115171;28;20238;-86
2022/10/12 10:52:28;;;;;;;10.70;5.40;;;13.70;99.90;;;;;;5115800;28;20427;-86
2022/10/12 10:55:16;;;;;;;10.00;5.50;;;13.80;99.90;;;;;;5115124;28;20253;-85
2022/10/12 10:57:48;;;;;;;14.90;5.53;;;14.10;99.90;;;;;;5115477;28;20204;-85
2022/10/12 11:00:18;;;;;;;8.20;5.00;;;14.30;99.90;;;;;;5114866;28;20212;-85
2022/10/12 11:02:49;;;;;;;10.57;4.90;;;14.30;99.90;;;;;;5115174;28;20215;-85
2022/10/12 11:05:22;;;;;;;10.37;4.90;;;14.40;99.90;;;;;;5115053;28;20205;-84
2022/10/12 11:07:51;;;;;;;7.90;4.90;;;14.40;99.90;;;;;;5114928;28;20220;-84
2022/10/12 11:10:27;;;;;;;14.77;5.50;;;14.40;99.90;;;;;;5114891;28;20670;-85
2022/10/12 11:12:59;;;;;;;14.25;6.03;;;14.50;99.90;;;;;;5114598;28;20429;-85
2022/10/12 11:15:33;;;;;;;8.77;5.03;;;14.50;99.90;;;;;;5115247;28;20659;-85
2022/10/12 11:18:07;;;;;;;12.00;5.50;;;14.60;99.90;;;;;;5115013;28;20200;-85
2022/10/12 11:20:48;;;;;;;14.77;5.53;;;14.80;99.90;;;;;;5121563;28;20218;-89
2022/10/12 11:23:27;;;;;;;10.70;5.63;;;14.70;99.90;;;;;;5127786;28;20211;-89
2022/10/12 11:26:29;;;;;;;13.43;5.40;;;14.80;99.90;;;;;;5127741;28;20291;-90
2022/10/12 11:28:59;;;;;;;10.27;4.53;;;14.90;99.90;;;;;;5129001;27;20680;-89
2022/10/12 11:31:46;;;;;;;9.00;5.20;;;15.00;99.90;;;;;;5124306;28;20285;-89
2022/10/12 11:34:18;;;;;;;7.97;5.03;;;15.00;99.90;;;;;;5125664;28;20201;-90
2022/10/12 11:36:49;;;;;;;10.50;5.67;;;15.10;99.90;;;;;;5122753;28;20227;-90
2022/10/12 11:39:23;;;;;;;14.33;4.90;;;15.30;99.90;;;;;;5118807;28;20212;-84
2022/10/12 11:41:54;;;;;;;13.20;4.93;;;15.30;99.90;;;;;;5114302;28;20310;-80
2022/10/12 11:44:26;;;;;;;7.80;4.70;;;15.60;99.90;;;;;;5114416;28;20268;-80
2022/10/12 11:46:56;;;;;;;9.30;4.73;;;15.90;99.90;;;;;;5113864;28;20222;-79
2022/10/12 11:49:28;;;;;;;12.57;5.23;;;16.00;99.90;;;;;;5114144;28;20235;-81
2022/10/12 11:51:58;;;;;;;11.13;4.30;;;15.90;99.90;;;;;;5113754;28;20219;-81
2022/10/12 11:54:31;;;;;;;9.20;4.67;;;16.10;99.90;;;;;;5114180;28;20208;-81
2022/10/12 11:57:04;;;;;;;9.10;4.60;;;16.20;99.90;;;;;;5113905;28;20196;-81
2022/10/12 11:59:36;;;;;;;9.03;4.63;;;16.00;99.90;;;;;;5113866;28;20215;-82
2022/10/12 12:02:17;;;;;;;10.53;5.07;;;15.90;99.90;;;;;;5114025;28;20204;-83
2022/10/12 12:04:45;;;;;;;7.57;4.10;;;15.90;99.90;;;;;;5113989;28;20207;-81
2022/10/12 12:07:47;;;;;;;21.27;5.23;;;15.90;99.90;;;;;;5113908;28;20283;-83
2022/10/12 12:11:03;;;;;;;11.13;3.57;;;15.80;99.90;;;;;;5113958;28;20231;-83
2022/10/12 12:13:32;;;;;;;11.13;4.97;;;15.60;99.90;;;;;;5113216;28;20420;-82
2022/10/12 12:16:32;;;;;;;10.43;4.63;;;15.80;99.90;;;;;;5113571;28;20771;-82
2022/10/12 12:19:36;;;;;;;11.47;4.97;;;16.00;99.90;;;;;;5114118;28;20200;-82
2022/10/12 12:22:35;;;;;;;10.63;5.53;;;15.90;99.90;;;;;;5113711;28;20202;-82
2022/10/12 12:25:18;;;;;;;9.73;4.60;;;15.80;99.90;;;;;;5113906;28;20188;-79
2022/10/12 12:27:48;;;;;;;9.17;4.13;;;16.10;99.90;;;;;;5112999;28;20215;-80
2022/10/12 12:30:29;;;;;;;14.40;4.27;;;16.10;99.90;;;;;;5113535;28;20224;-81
2022/10/12 12:32:58;;;;;;;9.53;5.20;;;16.20;99.90;;;;;;5113261;28;20209;-83
2022/10/12 12:35:29;;;;;;;9.63;5.30;;;16.20;99.90;;;;;;5113890;28;20204;-82
2022/10/12 12:38:15;;;;;;;14.50;5.00;;;16.20;99.90;;;;;;5113029;28;20569;-83
2022/10/12 12:41:09;;;;;;;12.30;5.27;;;16.00;99.90;;;;;;5113431;28;20273;-83
2022/10/12 12:43:49;;;;;;;12.48;5.85;;;16.00;99.90;;;;;;5109004;28;20811;-83
2022/10/12 12:46:18;;;;;;;9.87;4.57;;;15.90;99.90;;;;;;5114248;28;20219;-83
2022/10/12 12:49:02;;;;;;;10.97;4.50;;;15.80;99.90;;;;;;5117391;28;20224;-83
2022/10/12 12:51:43;;;;;;;10.17;4.27;;;16.00;99.90;;;;;;5117530;28;20241;-84
2022/10/12 12:54:17;;;;;;;14.80;4.37;;;16.20;99.90;;;;;;5117961;28;20191;-82
2022/10/12 12:57:06;;;;;;;10.13;4.07;;;16.30;99.90;;;;;;5117505;28;20188;-82
2022/10/12 13:00:05;;;;;;;8.10;4.00;;;16.30;99.90;;;;;;5100451;28;20212;-82
2022/10/12 13:03:12;;;;;;;7.57;3.60;;;16.20;99.90;;;;;;5117516;27;20204;-83